Airfield :
LOGIN :

Register | Disclaimer

   EN    FR    IT 

 










Legend :    VFR   Marginal VFR   IFR   Intensive IFR   Very Intensive IFR
Visi :
Ceiling :
>= 8 km
>= 3000ft
5 to 8 km
1000 to 3000 ft
1500m to 5 km
500 to 1000 ft
800 to 1500m
200 to 500 ft
< 800m
< 200 ft
Symbols :   Thunderstorms  Fog  Heavy snow  Heavy precipitations  Wind > 20 kt
SIGMETs :     Misc.  Thunderstorms  Icing  Turbulence  Mountain Waves  Volcanic Ashes






- Airport Elevation : 978 ft
- IATA code : LNZ


LOWL - Linz

CURRENT METAR :
  • 261420Z AUTO 12006KT 090V190 9999 FEW026 20/13 Q1019 NOSIG

EXPIRED METARs :
  • 261350Z AUTO 13005KT 070V180 9999 SCT026 20/14 Q1019 NOSIG
  • 261320Z AUTO 11006KT 040V160 9999 FEW024 SCT026 19/14 Q1019 NOSIG
  • 261250Z AUTO VRB05KT 9999 FEW022 SCT024 19/14 Q1020 NOSIG
  • 261220Z AUTO 09004KT 020V150 9999 FEW020 SCT022 19/13 Q1020 NOSIG
  • 261150Z AUTO VRB01KT 9999 FEW014 SCT018 18/13 Q1020 NOSIG
  • 261120Z AUTO VRB03KT 9999 FEW012 BKN014 17/13 Q1020 TEMPO BKN016
  • 261050Z AUTO VRB01KT 9999 -RA FEW009 SCT042 BKN060 16/13 Q1020 TEMPO BKN014
  • 261020Z AUTO 12003KT 080V170 9999 -RA FEW009 SCT011 BKN032 16/14 Q1021 BECMG BKN015
  • 260950Z AUTO 13003KT 100V220 9999 -RA FEW011 SCT050 BKN060 15/13 Q1021 TEMPO RA

TAF TAF LOWL
Valid from the 26 at 12:00 until the 27 at 12:00 UTC


261115Z 2612/2712 VRB03KT 9999 FEW020 SCT040 TX23/2712Z TN12/2703Z
TEMPO 2612/2617 SHRA BKN014
TEMPO 2612/2618 08008KT
PROB30
TEMPO 2612/2616 FEW040CB
BECMG 2702/2704 0800 BCFG BKN002
BECMG 2705/2707 BKN012
FM270800 08005KT CAVOK



MET'MAP, your aeronautical weather chart ! - Copyright ORBIFLY December 2007 - Disclaimer

ORBIFLY MET'MAP TEAM :

Programming & Development : Alexandra Zaïnal
Original concept : Baudouin d'Aumeries
Technical & hardware support : Manuel Goepfert
Assistance : Marc-Olivier Méhu




SOURCES & CREDITS :

   NOAA